sensor_id;sensor_type;location;lat;lon;timestamp;P1;durP1;ratioP1;P2;durP2;ratioP2
20122;SDS011;10222;50.848;4.336;2024-02-23T00:02:21;1.63;;;0.50;;
20122;SDS011;10222;50.848;4.336;2024-02-23T00:04:48;3.40;;;0.50;;
20122;SDS011;10222;50.848;4.336;2024-02-23T00:07:14;3.80;;;0.70;;
20122;SDS011;10222;50.848;4.336;2024-02-23T00:09:40;3.47;;;0.90;;
20122;SDS011;10222;50.848;4.336;2024-02-23T00:12:06;4.60;;;1.00;;
20122;SDS011;10222;50.848;4.336;2024-02-23T00:14:33;1.80;;;0.70;;
20122;SDS011;10222;50.848;4.336;2024-02-23T00:17:01;1.93;;;0.50;;
20122;SDS011;10222;50.848;4.336;2024-02-23T00:19:29;3.07;;;0.70;;
20122;SDS011;10222;50.848;4.336;2024-02-23T00:21:55;3.13;;;0.63;;
20122;SDS011;10222;50.848;4.336;2024-02-23T00:24:22;3.80;;;0.60;;
20122;SDS011;10222;50.848;4.336;2024-02-23T00:26:49;3.57;;;0.90;;
20122;SDS011;10222;50.848;4.336;2024-02-23T00:29:16;2.07;;;0.57;;
20122;SDS011;10222;50.848;4.336;2024-02-23T00:31:42;1.03;;;0.40;;
20122;SDS011;10222;50.848;4.336;2024-02-23T00:34:10;1.90;;;0.57;;
20122;SDS011;10222;50.848;4.336;2024-02-23T00:36:41;1.33;;;0.50;;
20122;SDS011;10222;50.848;4.336;2024-02-23T00:39:07;0.97;;;0.40;;
20122;SDS011;10222;50.848;4.336;2024-02-23T00:41:34;3.40;;;0.80;;
20122;SDS011;10222;50.848;4.336;2024-02-23T00:44:00;1.70;;;0.40;;
20122;SDS011;10222;50.848;4.336;2024-02-23T00:46:26;3.33;;;0.63;;
20122;SDS011;10222;50.848;4.336;2024-02-23T00:48:52;3.63;;;0.70;;
20122;SDS011;10222;50.848;4.336;2024-02-23T00:51:19;2.27;;;0.60;;
20122;SDS011;10222;50.848;4.336;2024-02-23T00:53:45;2.47;;;0.60;;
20122;SDS011;10222;50.848;4.336;2024-02-23T00:56:11;3.67;;;0.70;;
20122;SDS011;10222;50.848;4.336;2024-02-23T00:58:38;2.23;;;0.50;;
20122;SDS011;10222;50.848;4.336;2024-02-23T01:01:04;2.70;;;0.53;;
20122;SDS011;10222;50.848;4.336;2024-02-23T01:03:30;2.47;;;0.60;;
20122;SDS011;10222;50.848;4.336;2024-02-23T01:05:56;2.23;;;0.90;;
20122;SDS011;10222;50.848;4.336;2024-02-23T01:08:22;1.33;;;0.80;;
20122;SDS011;10222;50.848;4.336;2024-02-23T01:10:48;0.80;;;0.50;;
20122;SDS011;10222;50.848;4.336;2024-02-23T01:13:14;3.83;;;0.57;;
20122;SDS011;10222;50.848;4.336;2024-02-23T01:15:40;1.10;;;0.60;;
20122;SDS011;10222;50.848;4.336;2024-02-23T01:18:06;1.47;;;0.53;;
20122;SDS011;10222;50.848;4.336;2024-02-23T01:20:33;0.90;;;0.40;;
20122;SDS011;10222;50.848;4.336;2024-02-23T01:22:59;4.33;;;0.60;;
20122;SDS011;10222;50.848;4.336;2024-02-23T01:25:25;3.73;;;0.60;;
20122;SDS011;10222;50.848;4.336;2024-02-23T01:27:51;2.20;;;0.60;;
20122;SDS011;10222;50.848;4.336;2024-02-23T01:30:17;1.00;;;0.60;;
20122;SDS011;10222;50.848;4.336;2024-02-23T01:32:44;0.70;;;0.47;;
20122;SDS011;10222;50.848;4.336;2024-02-23T01:35:10;3.90;;;0.60;;
20122;SDS011;10222;50.848;4.336;2024-02-23T01:37:36;2.23;;;0.50;;
20122;SDS011;10222;50.848;4.336;2024-02-23T01:40:02;1.90;;;0.60;;
20122;SDS011;10222;50.848;4.336;2024-02-23T01:42:28;2.13;;;0.70;;
20122;SDS011;10222;50.848;4.336;2024-02-23T01:44:54;3.70;;;1.10;;
20122;SDS011;10222;50.848;4.336;2024-02-23T01:47:25;4.17;;;0.80;;
20122;SDS011;10222;50.848;4.336;2024-02-23T01:49:52;6.27;;;1.10;;
20122;SDS011;10222;50.848;4.336;2024-02-23T01:52:18;7.43;;;0.90;;
20122;SDS011;10222;50.848;4.336;2024-02-23T01:54:44;2.10;;;0.60;;
20122;SDS011;10222;50.848;4.336;2024-02-23T01:57:10;2.37;;;0.70;;
20122;SDS011;10222;50.848;4.336;2024-02-23T01:59:37;4.33;;;0.80;;
20122;SDS011;10222;50.848;4.336;2024-02-23T02:02:04;4.03;;;0.70;;
20122;SDS011;10222;50.848;4.336;2024-02-23T02:04:30;4.90;;;1.13;;
20122;SDS011;10222;50.848;4.336;2024-02-23T02:06:57;1.93;;;0.60;;
20122;SDS011;10222;50.848;4.336;2024-02-23T02:09:23;2.17;;;0.63;;
20122;SDS011;10222;50.848;4.336;2024-02-23T02:11:50;2.80;;;0.90;;
20122;SDS011;10222;50.848;4.336;2024-02-23T02:14:17;4.70;;;0.93;;
20122;SDS011;10222;50.848;4.336;2024-02-23T02:16:43;3.60;;;0.80;;
20122;SDS011;10222;50.848;4.336;2024-02-23T02:19:09;3.93;;;1.07;;
20122;SDS011;10222;50.848;4.336;2024-02-23T02:21:35;3.70;;;0.97;;
20122;SDS011;10222;50.848;4.336;2024-02-23T02:24:02;3.07;;;0.73;;
20122;SDS011;10222;50.848;4.336;2024-02-23T02:26:32;4.73;;;0.80;;
20122;SDS011;10222;50.848;4.336;2024-02-23T02:28:58;3.93;;;0.73;;
20122;SDS011;10222;50.848;4.336;2024-02-23T02:31:24;4.63;;;0.70;;
20122;SDS011;10222;50.848;4.336;2024-02-23T02:33:50;3.43;;;0.87;;
20122;SDS011;10222;50.848;4.336;2024-02-23T02:36:16;3.30;;;0.83;;
20122;SDS011;10222;50.848;4.336;2024-02-23T02:38:42;5.00;;;1.20;;
20122;SDS011;10222;50.848;4.336;2024-02-23T02:41:08;3.37;;;0.77;;
20122;SDS011;10222;50.848;4.336;2024-02-23T02:43:34;3.10;;;1.10;;
20122;SDS011;10222;50.848;4.336;2024-02-23T02:46:01;4.87;;;0.93;;
20122;SDS011;10222;50.848;4.336;2024-02-23T02:48:28;5.57;;;1.80;;
20122;SDS011;10222;50.848;4.336;2024-02-23T02:50:54;1.63;;;0.67;;
20122;SDS011;10222;50.848;4.336;2024-02-23T02:53:20;2.00;;;0.70;;
20122;SDS011;10222;50.848;4.336;2024-02-23T02:55:46;4.80;;;0.80;;
20122;SDS011;10222;50.848;4.336;2024-02-23T02:58:12;3.83;;;0.73;;
20122;SDS011;10222;50.848;4.336;2024-02-23T03:00:38;3.77;;;0.57;;
20122;SDS011;10222;50.848;4.336;2024-02-23T03:03:04;4.20;;;1.03;;
20122;SDS011;10222;50.848;4.336;2024-02-23T03:05:30;4.37;;;1.23;;
20122;SDS011;10222;50.848;4.336;2024-02-23T03:07:56;6.67;;;1.20;;
20122;SDS011;10222;50.848;4.336;2024-02-23T03:10:24;2.80;;;0.73;;
20122;SDS011;10222;50.848;4.336;2024-02-23T03:12:51;4.33;;;1.00;;
20122;SDS011;10222;50.848;4.336;2024-02-23T03:15:18;5.43;;;0.80;;
20122;SDS011;10222;50.848;4.336;2024-02-23T03:17:44;5.33;;;1.13;;
20122;SDS011;10222;50.848;4.336;2024-02-23T03:20:10;4.27;;;0.87;;
20122;SDS011;10222;50.848;4.336;2024-02-23T03:22:37;2.80;;;0.70;;
20122;SDS011;10222;50.848;4.336;2024-02-23T03:25:03;3.90;;;0.73;;
20122;SDS011;10222;50.848;4.336;2024-02-23T03:27:36;4.43;;;1.10;;
20122;SDS011;10222;50.848;4.336;2024-02-23T03:30:02;5.17;;;1.10;;
20122;SDS011;10222;50.848;4.336;2024-02-23T03:32:29;4.77;;;1.07;;
20122;SDS011;10222;50.848;4.336;2024-02-23T03:35:01;4.27;;;1.30;;
20122;SDS011;10222;50.848;4.336;2024-02-23T03:37:27;5.03;;;1.07;;
20122;SDS011;10222;50.848;4.336;2024-02-23T03:39:53;4.67;;;1.10;;
20122;SDS011;10222;50.848;4.336;2024-02-23T03:42:19;10.83;;;1.70;;
20122;SDS011;10222;50.848;4.336;2024-02-23T03:44:44;7.37;;;1.07;;
20122;SDS011;10222;50.848;4.336;2024-02-23T03:47:10;5.70;;;1.13;;
20122;SDS011;10222;50.848;4.336;2024-02-23T03:49:37;4.73;;;1.17;;
20122;SDS011;10222;50.848;4.336;2024-02-23T03:52:03;3.37;;;0.93;;
20122;SDS011;10222;50.848;4.336;2024-02-23T03:54:30;5.17;;;1.00;;
20122;SDS011;10222;50.848;4.336;2024-02-23T03:56:56;4.30;;;1.50;;
20122;SDS011;10222;50.848;4.336;2024-02-23T03:59:22;6.03;;;1.70;;
20122;SDS011;10222;50.848;4.336;2024-02-23T04:01:48;5.17;;;1.23;;
20122;SDS011;10222;50.848;4.336;2024-02-23T04:04:14;5.07;;;1.10;;
20122;SDS011;10222;50.848;4.336;2024-02-23T04:06:41;5.40;;;1.50;;
20122;SDS011;10222;50.848;4.336;2024-02-23T04:09:08;4.87;;;1.50;;
20122;SDS011;10222;50.848;4.336;2024-02-23T04:11:34;5.70;;;1.30;;
20122;SDS011;10222;50.848;4.336;2024-02-23T04:14:00;4.93;;;1.27;;
20122;SDS011;10222;50.848;4.336;2024-02-23T04:16:30;3.80;;;0.90;;
20122;SDS011;10222;50.848;4.336;2024-02-23T04:18:56;6.50;;;1.37;;
20122;SDS011;10222;50.848;4.336;2024-02-23T04:21:22;3.27;;;1.00;;
20122;SDS011;10222;50.848;4.336;2024-02-23T04:23:48;6.87;;;1.30;;
20122;SDS011;10222;50.848;4.336;2024-02-23T04:26:14;6.50;;;1.37;;
20122;SDS011;10222;50.848;4.336;2024-02-23T04:28:40;6.00;;;1.17;;
20122;SDS011;10222;50.848;4.336;2024-02-23T04:31:07;4.10;;;0.93;;
20122;SDS011;10222;50.848;4.336;2024-02-23T04:33:34;7.53;;;0.87;;
20122;SDS011;10222;50.848;4.336;2024-02-23T04:36:00;10.27;;;0.97;;
20122;SDS011;10222;50.848;4.336;2024-02-23T04:38:28;6.90;;;1.40;;
20122;SDS011;10222;50.848;4.336;2024-02-23T04:40:54;9.27;;;1.30;;
20122;SDS011;10222;50.848;4.336;2024-02-23T04:43:20;5.53;;;1.33;;
20122;SDS011;10222;50.848;4.336;2024-02-23T04:45:47;3.57;;;1.03;;
20122;SDS011;10222;50.848;4.336;2024-02-23T04:48:14;5.13;;;1.00;;
20122;SDS011;10222;50.848;4.336;2024-02-23T04:50:40;3.77;;;0.80;;
20122;SDS011;10222;50.848;4.336;2024-02-23T04:53:06;5.50;;;1.30;;
20122;SDS011;10222;50.848;4.336;2024-02-23T04:55:33;2.53;;;0.73;;
20122;SDS011;10222;50.848;4.336;2024-02-23T04:57:59;6.23;;;1.47;;
20122;SDS011;10222;50.848;4.336;2024-02-23T05:00:28;5.10;;;1.33;;
20122;SDS011;10222;50.848;4.336;2024-02-23T05:02:58;8.73;;;2.13;;
20122;SDS011;10222;50.848;4.336;2024-02-23T05:05:24;8.57;;;2.33;;
20122;SDS011;10222;50.848;4.336;2024-02-23T05:07:50;6.47;;;1.70;;
20122;SDS011;10222;50.848;4.336;2024-02-23T05:10:16;21.37;;;2.73;;
20122;SDS011;10222;50.848;4.336;2024-02-23T05:12:42;6.77;;;1.83;;
20122;SDS011;10222;50.848;4.336;2024-02-23T05:15:08;3.40;;;1.10;;
20122;SDS011;10222;50.848;4.336;2024-02-23T05:17:34;5.30;;;1.13;;
20122;SDS011;10222;50.848;4.336;2024-02-23T05:20:00;9.87;;;1.47;;
20122;SDS011;10222;50.848;4.336;2024-02-23T05:22:32;2.90;;;0.80;;
20122;SDS011;10222;50.848;4.336;2024-02-23T05:24:58;4.47;;;1.23;;
20122;SDS011;10222;50.848;4.336;2024-02-23T05:27:24;5.73;;;0.90;;
20122;SDS011;10222;50.848;4.336;2024-02-23T05:29:52;10.67;;;1.20;;
20122;SDS011;10222;50.848;4.336;2024-02-23T05:32:18;3.83;;;1.30;;
20122;SDS011;10222;50.848;4.336;2024-02-23T05:34:44;2.57;;;1.00;;
20122;SDS011;10222;50.848;4.336;2024-02-23T05:37:10;7.67;;;1.00;;
20122;SDS011;10222;50.848;4.336;2024-02-23T05:39:36;4.60;;;1.10;;
20122;SDS011;10222;50.848;4.336;2024-02-23T05:42:03;3.53;;;1.00;;
20122;SDS011;10222;50.848;4.336;2024-02-23T05:44:29;5.53;;;1.50;;
20122;SDS011;10222;50.848;4.336;2024-02-23T05:46:55;4.20;;;1.00;;
20122;SDS011;10222;50.848;4.336;2024-02-23T05:49:21;8.07;;;1.10;;
20122;SDS011;10222;50.848;4.336;2024-02-23T05:51:47;4.93;;;1.17;;
20122;SDS011;10222;50.848;4.336;2024-02-23T05:54:13;2.13;;;1.00;;
20122;SDS011;10222;50.848;4.336;2024-02-23T05:56:39;9.90;;;1.20;;
20122;SDS011;10222;50.848;4.336;2024-02-23T05:59:07;7.40;;;1.70;;
20122;SDS011;10222;50.848;4.336;2024-02-23T06:01:33;3.83;;;1.03;;
20122;SDS011;10222;50.848;4.336;2024-02-23T06:03:59;7.83;;;1.70;;
20122;SDS011;10222;50.848;4.336;2024-02-23T06:06:25;5.80;;;1.37;;
20122;SDS011;10222;50.848;4.336;2024-02-23T06:08:51;7.57;;;1.53;;
20122;SDS011;10222;50.848;4.336;2024-02-23T06:11:17;2.90;;;1.17;;
20122;SDS011;10222;50.848;4.336;2024-02-23T06:13:43;6.43;;;1.20;;
20122;SDS011;10222;50.848;4.336;2024-02-23T06:16:10;3.93;;;1.27;;
20122;SDS011;10222;50.848;4.336;2024-02-23T06:18:38;2.77;;;0.80;;
20122;SDS011;10222;50.848;4.336;2024-02-23T06:21:15;8.10;;;1.53;;
20122;SDS011;10222;50.848;4.336;2024-02-23T06:23:42;3.80;;;1.00;;
20122;SDS011;10222;50.848;4.336;2024-02-23T06:26:10;9.03;;;1.30;;
20122;SDS011;10222;50.848;4.336;2024-02-23T06:28:36;5.43;;;1.10;;
20122;SDS011;10222;50.848;4.336;2024-02-23T06:31:04;4.17;;;1.20;;
20122;SDS011;10222;50.848;4.336;2024-02-23T06:33:30;6.33;;;1.30;;
20122;SDS011;10222;50.848;4.336;2024-02-23T06:35:56;3.30;;;1.23;;
20122;SDS011;10222;50.848;4.336;2024-02-23T06:38:22;3.13;;;1.00;;
20122;SDS011;10222;50.848;4.336;2024-02-23T06:40:48;11.80;;;1.73;;
20122;SDS011;10222;50.848;4.336;2024-02-23T06:43:14;5.73;;;1.47;;
20122;SDS011;10222;50.848;4.336;2024-02-23T06:45:40;3.60;;;1.23;;
20122;SDS011;10222;50.848;4.336;2024-02-23T06:48:06;3.83;;;1.23;;
20122;SDS011;10222;50.848;4.336;2024-02-23T06:50:32;4.87;;;1.00;;
20122;SDS011;10222;50.848;4.336;2024-02-23T06:52:58;10.10;;;1.80;;
20122;SDS011;10222;50.848;4.336;2024-02-23T06:55:25;3.50;;;1.00;;
20122;SDS011;10222;50.848;4.336;2024-02-23T06:57:51;2.53;;;0.90;;
20122;SDS011;10222;50.848;4.336;2024-02-23T07:00:17;4.73;;;1.30;;
20122;SDS011;10222;50.848;4.336;2024-02-23T07:02:43;7.47;;;1.73;;
20122;SDS011;10222;50.848;4.336;2024-02-23T07:05:09;5.87;;;1.27;;
20122;SDS011;10222;50.848;4.336;2024-02-23T07:07:35;7.13;;;1.53;;
20122;SDS011;10222;50.848;4.336;2024-02-23T07:10:01;5.30;;;1.40;;
20122;SDS011;10222;50.848;4.336;2024-02-23T07:12:27;5.43;;;1.23;;
20122;SDS011;10222;50.848;4.336;2024-02-23T07:14:54;3.20;;;1.20;;
20122;SDS011;10222;50.848;4.336;2024-02-23T07:17:20;4.90;;;1.40;;
20122;SDS011;10222;50.848;4.336;2024-02-23T07:19:46;8.03;;;1.50;;
20122;SDS011;10222;50.848;4.336;2024-02-23T07:22:13;3.27;;;1.33;;
20122;SDS011;10222;50.848;4.336;2024-02-23T07:24:41;5.23;;;1.43;;
20122;SDS011;10222;50.848;4.336;2024-02-23T07:27:07;6.97;;;1.60;;
20122;SDS011;10222;50.848;4.336;2024-02-23T07:29:33;7.53;;;1.23;;
20122;SDS011;10222;50.848;4.336;2024-02-23T07:31:59;6.10;;;1.43;;
20122;SDS011;10222;50.848;4.336;2024-02-23T07:34:26;7.67;;;1.17;;
20122;SDS011;10222;50.848;4.336;2024-02-23T07:36:52;6.17;;;1.07;;
20122;SDS011;10222;50.848;4.336;2024-02-23T07:39:19;7.93;;;1.30;;
20122;SDS011;10222;50.848;4.336;2024-02-23T07:41:45;1.43;;;0.97;;
20122;SDS011;10222;50.848;4.336;2024-02-23T07:44:11;5.50;;;1.10;;
20122;SDS011;10222;50.848;4.336;2024-02-23T07:46:37;9.60;;;1.23;;
20122;SDS011;10222;50.848;4.336;2024-02-23T07:49:06;4.43;;;1.00;;
20122;SDS011;10222;50.848;4.336;2024-02-23T07:51:32;7.20;;;1.30;;
20122;SDS011;10222;50.848;4.336;2024-02-23T07:53:58;6.37;;;1.37;;
20122;SDS011;10222;50.848;4.336;2024-02-23T07:56:24;9.73;;;1.47;;
20122;SDS011;10222;50.848;4.336;2024-02-23T07:58:50;7.70;;;1.40;;
20122;SDS011;10222;50.848;4.336;2024-02-23T08:01:16;3.40;;;1.33;;
20122;SDS011;10222;50.848;4.336;2024-02-23T08:03:44;4.63;;;1.10;;
20122;SDS011;10222;50.848;4.336;2024-02-23T08:06:10;4.20;;;1.03;;
20122;SDS011;10222;50.848;4.336;2024-02-23T08:08:37;2.23;;;1.20;;
20122;SDS011;10222;50.848;4.336;2024-02-23T08:11:04;12.50;;;1.20;;
20122;SDS011;10222;50.848;4.336;2024-02-23T08:13:30;2.93;;;0.83;;
20122;SDS011;10222;50.848;4.336;2024-02-23T08:15:59;8.03;;;1.40;;
20122;SDS011;10222;50.848;4.336;2024-02-23T08:18:25;8.00;;;1.67;;
20122;SDS011;10222;50.848;4.336;2024-02-23T08:20:51;7.47;;;1.00;;
20122;SDS011;10222;50.848;4.336;2024-02-23T08:23:18;6.53;;;1.50;;
20122;SDS011;10222;50.848;4.336;2024-02-23T08:25:46;7.63;;;1.67;;
20122;SDS011;10222;50.848;4.336;2024-02-23T08:28:12;14.33;;;1.10;;
20122;SDS011;10222;50.848;4.336;2024-02-23T08:30:38;2.67;;;1.10;;
20122;SDS011;10222;50.848;4.336;2024-02-23T08:33:04;4.73;;;1.13;;
20122;SDS011;10222;50.848;4.336;2024-02-23T08:35:30;3.37;;;1.27;;
20122;SDS011;10222;50.848;4.336;2024-02-23T08:37:57;5.50;;;1.07;;
20122;SDS011;10222;50.848;4.336;2024-02-23T08:40:23;5.07;;;1.33;;
20122;SDS011;10222;50.848;4.336;2024-02-23T08:42:49;3.57;;;1.00;;
20122;SDS011;10222;50.848;4.336;2024-02-23T08:45:16;3.90;;;1.13;;
20122;SDS011;10222;50.848;4.336;2024-02-23T08:47:42;3.50;;;1.10;;
20122;SDS011;10222;50.848;4.336;2024-02-23T08:50:09;5.70;;;1.60;;
20122;SDS011;10222;50.848;4.336;2024-02-23T08:52:35;5.07;;;1.27;;
20122;SDS011;10222;50.848;4.336;2024-02-23T08:55:01;8.07;;;1.37;;
20122;SDS011;10222;50.848;4.336;2024-02-23T08:57:27;3.30;;;0.90;;
20122;SDS011;10222;50.848;4.336;2024-02-23T08:59:53;4.53;;;1.63;;
20122;SDS011;10222;50.848;4.336;2024-02-23T09:02:22;6.47;;;2.07;;
20122;SDS011;10222;50.848;4.336;2024-02-23T09:04:48;8.70;;;1.90;;
20122;SDS011;10222;50.848;4.336;2024-02-23T09:07:14;5.50;;;1.50;;
20122;SDS011;10222;50.848;4.336;2024-02-23T09:09:40;5.17;;;1.77;;
20122;SDS011;10222;50.848;4.336;2024-02-23T09:12:06;5.50;;;1.50;;
20122;SDS011;10222;50.848;4.336;2024-02-23T09:14:35;6.57;;;1.60;;
20122;SDS011;10222;50.848;4.336;2024-02-23T09:17:02;8.00;;;2.30;;
20122;SDS011;10222;50.848;4.336;2024-02-23T09:19:29;7.63;;;1.77;;
20122;SDS011;10222;50.848;4.336;2024-02-23T09:21:55;6.00;;;1.40;;
20122;SDS011;10222;50.848;4.336;2024-02-23T09:24:21;3.67;;;1.50;;
20122;SDS011;10222;50.848;4.336;2024-02-23T09:26:47;4.33;;;1.20;;
20122;SDS011;10222;50.848;4.336;2024-02-23T09:29:13;4.97;;;1.20;;
20122;SDS011;10222;50.848;4.336;2024-02-23T09:31:40;6.80;;;1.27;;
20122;SDS011;10222;50.848;4.336;2024-02-23T09:34:06;8.10;;;1.97;;
20122;SDS011;10222;50.848;4.336;2024-02-23T09:36:32;5.33;;;1.63;;
20122;SDS011;10222;50.848;4.336;2024-02-23T09:38:58;8.33;;;1.73;;
20122;SDS011;10222;50.848;4.336;2024-02-23T09:41:26;8.23;;;1.60;;
20122;SDS011;10222;50.848;4.336;2024-02-23T09:43:52;5.43;;;1.50;;
20122;SDS011;10222;50.848;4.336;2024-02-23T09:46:18;11.27;;;2.10;;
20122;SDS011;10222;50.848;4.336;2024-02-23T09:48:44;7.67;;;1.57;;
20122;SDS011;10222;50.848;4.336;2024-02-23T09:51:11;5.90;;;1.60;;
20122;SDS011;10222;50.848;4.336;2024-02-23T09:53:38;6.60;;;1.87;;
20122;SDS011;10222;50.848;4.336;2024-02-23T09:56:04;7.43;;;1.70;;
20122;SDS011;10222;50.848;4.336;2024-02-23T09:58:31;3.80;;;1.30;;
20122;SDS011;10222;50.848;4.336;2024-02-23T10:00:58;5.70;;;1.63;;
20122;SDS011;10222;50.848;4.336;2024-02-23T10:03:24;7.30;;;2.00;;
20122;SDS011;10222;50.848;4.336;2024-02-23T10:05:51;6.17;;;1.67;;
20122;SDS011;10222;50.848;4.336;2024-02-23T10:08:17;8.27;;;1.60;;
20122;SDS011;10222;50.848;4.336;2024-02-23T10:10:45;7.23;;;1.50;;
20122;SDS011;10222;50.848;4.336;2024-02-23T10:13:11;5.43;;;1.10;;
20122;SDS011;10222;50.848;4.336;2024-02-23T10:15:38;7.70;;;1.60;;
20122;SDS011;10222;50.848;4.336;2024-02-23T10:18:04;4.80;;;1.50;;
20122;SDS011;10222;50.848;4.336;2024-02-23T10:20:30;7.13;;;1.80;;
20122;SDS011;10222;50.848;4.336;2024-02-23T10:22:56;6.03;;;2.23;;
20122;SDS011;10222;50.848;4.336;2024-02-23T10:25:22;11.87;;;2.20;;
20122;SDS011;10222;50.848;4.336;2024-02-23T10:27:49;5.97;;;1.90;;
20122;SDS011;10222;50.848;4.336;2024-02-23T10:30:15;8.90;;;2.43;;
20122;SDS011;10222;50.848;4.336;2024-02-23T10:32:41;6.03;;;1.93;;
20122;SDS011;10222;50.848;4.336;2024-02-23T10:35:10;10.47;;;2.53;;
20122;SDS011;10222;50.848;4.336;2024-02-23T10:37:36;12.53;;;2.83;;
20122;SDS011;10222;50.848;4.336;2024-02-23T10:40:02;7.33;;;2.27;;
20122;SDS011;10222;50.848;4.336;2024-02-23T10:42:30;8.47;;;2.10;;
20122;SDS011;10222;50.848;4.336;2024-02-23T10:44:58;7.33;;;1.73;;
20122;SDS011;10222;50.848;4.336;2024-02-23T10:47:26;8.97;;;1.87;;
20122;SDS011;10222;50.848;4.336;2024-02-23T10:49:54;7.10;;;2.27;;
20122;SDS011;10222;50.848;4.336;2024-02-23T10:52:20;3.63;;;1.90;;
20122;SDS011;10222;50.848;4.336;2024-02-23T10:54:49;5.60;;;1.80;;
20122;SDS011;10222;50.848;4.336;2024-02-23T10:57:17;7.00;;;1.80;;
20122;SDS011;10222;50.848;4.336;2024-02-23T10:59:46;10.53;;;1.60;;
20122;SDS011;10222;50.848;4.336;2024-02-23T11:02:13;7.60;;;1.60;;
20122;SDS011;10222;50.848;4.336;2024-02-23T11:04:47;5.40;;;1.73;;
20122;SDS011;10222;50.848;4.336;2024-02-23T11:07:18;8.97;;;1.90;;
20122;SDS011;10222;50.848;4.336;2024-02-23T11:09:54;7.57;;;2.10;;
20122;SDS011;10222;50.848;4.336;2024-02-23T11:12:28;8.73;;;2.00;;
20122;SDS011;10222;50.848;4.336;2024-02-23T11:14:58;3.43;;;1.60;;
20122;SDS011;10222;50.848;4.336;2024-02-23T11:17:31;5.20;;;1.80;;
20122;SDS011;10222;50.848;4.336;2024-02-23T11:19:58;5.10;;;2.20;;
20122;SDS011;10222;50.848;4.336;2024-02-23T11:22:24;6.00;;;1.80;;
20122;SDS011;10222;50.848;4.336;2024-02-23T11:24:59;8.07;;;1.50;;
20122;SDS011;10222;50.848;4.336;2024-02-23T11:27:29;5.67;;;1.83;;
20122;SDS011;10222;50.848;4.336;2024-02-23T11:30:03;3.73;;;1.47;;
20122;SDS011;10222;50.848;4.336;2024-02-23T11:32:39;8.27;;;1.73;;
20122;SDS011;10222;50.848;4.336;2024-02-23T11:35:06;11.30;;;1.97;;
20122;SDS011;10222;50.848;4.336;2024-02-23T11:37:32;6.67;;;1.80;;
20122;SDS011;10222;50.848;4.336;2024-02-23T11:39:59;6.17;;;1.30;;
20122;SDS011;10222;50.848;4.336;2024-02-23T11:42:27;3.77;;;1.30;;
20122;SDS011;10222;50.848;4.336;2024-02-23T11:44:54;3.37;;;1.27;;
20122;SDS011;10222;50.848;4.336;2024-02-23T11:47:20;6.20;;;1.70;;
20122;SDS011;10222;50.848;4.336;2024-02-23T11:49:45;6.97;;;1.83;;
20122;SDS011;10222;50.848;4.336;2024-02-23T11:52:11;3.97;;;1.23;;
20122;SDS011;10222;50.848;4.336;2024-02-23T11:54:38;7.57;;;1.40;;
20122;SDS011;10222;50.848;4.336;2024-02-23T11:57:04;3.37;;;1.30;;
20122;SDS011;10222;50.848;4.336;2024-02-23T11:59:30;3.20;;;1.27;;
20122;SDS011;10222;50.848;4.336;2024-02-23T12:01:56;4.77;;;1.27;;
20122;SDS011;10222;50.848;4.336;2024-02-23T12:04:22;8.80;;;1.20;;
20122;SDS011;10222;50.848;4.336;2024-02-23T12:06:49;5.20;;;1.30;;
20122;SDS011;10222;50.848;4.336;2024-02-23T12:09:15;4.10;;;1.60;;
20122;SDS011;10222;50.848;4.336;2024-02-23T12:11:41;4.00;;;1.40;;
20122;SDS011;10222;50.848;4.336;2024-02-23T12:14:07;4.80;;;1.30;;
20122;SDS011;10222;50.848;4.336;2024-02-23T12:16:34;2.27;;;1.00;;
20122;SDS011;10222;50.848;4.336;2024-02-23T12:19:03;6.53;;;1.10;;
20122;SDS011;10222;50.848;4.336;2024-02-23T12:21:29;3.13;;;1.00;;
20122;SDS011;10222;50.848;4.336;2024-02-23T12:23:55;4.17;;;1.03;;
20122;SDS011;10222;50.848;4.336;2024-02-23T12:26:21;4.10;;;1.30;;
20122;SDS011;10222;50.848;4.336;2024-02-23T12:28:47;4.87;;;1.63;;
20122;SDS011;10222;50.848;4.336;2024-02-23T12:31:13;4.10;;;1.27;;
20122;SDS011;10222;50.848;4.336;2024-02-23T12:33:39;4.37;;;1.30;;
20122;SDS011;10222;50.848;4.336;2024-02-23T12:36:06;4.77;;;0.90;;
20122;SDS011;10222;50.848;4.336;2024-02-23T12:38:32;3.63;;;1.20;;
20122;SDS011;10222;50.848;4.336;2024-02-23T12:40:59;4.90;;;1.30;;
20122;SDS011;10222;50.848;4.336;2024-02-23T12:43:25;6.00;;;1.10;;
20122;SDS011;10222;50.848;4.336;2024-02-23T12:45:52;5.17;;;1.07;;
20122;SDS011;10222;50.848;4.336;2024-02-23T12:48:19;6.70;;;1.60;;
20122;SDS011;10222;50.848;4.336;2024-02-23T12:50:45;4.70;;;1.60;;
20122;SDS011;10222;50.848;4.336;2024-02-23T12:56:11;5.03;;;1.93;;
20122;SDS011;10222;50.848;4.336;2024-02-23T12:58:38;5.10;;;1.70;;
20122;SDS011;10222;50.848;4.336;2024-02-23T13:01:04;8.63;;;2.10;;
20122;SDS011;10222;50.848;4.336;2024-02-23T13:03:31;2.37;;;1.23;;
20122;SDS011;10222;50.848;4.336;2024-02-23T13:05:58;4.03;;;1.27;;
20122;SDS011;10222;50.848;4.336;2024-02-23T13:08:24;7.93;;;1.50;;
20122;SDS011;10222;50.848;4.336;2024-02-23T13:10:51;4.33;;;1.43;;
20122;SDS011;10222;50.848;4.336;2024-02-23T13:13:17;5.23;;;1.47;;
20122;SDS011;10222;50.848;4.336;2024-02-23T13:15:44;3.93;;;1.53;;
20122;SDS011;10222;50.848;4.336;2024-02-23T13:18:10;3.20;;;1.00;;
20122;SDS011;10222;50.848;4.336;2024-02-23T13:20:39;6.43;;;1.90;;
20122;SDS011;10222;50.848;4.336;2024-02-23T13:23:09;6.10;;;1.50;;
20122;SDS011;10222;50.848;4.336;2024-02-23T13:25:36;5.03;;;1.20;;
20122;SDS011;10222;50.848;4.336;2024-02-23T13:28:02;4.27;;;1.33;;
20122;SDS011;10222;50.848;4.336;2024-02-23T13:30:29;4.23;;;1.63;;
20122;SDS011;10222;50.848;4.336;2024-02-23T13:32:55;4.90;;;1.40;;
20122;SDS011;10222;50.848;4.336;2024-02-23T13:35:21;3.77;;;1.93;;
20122;SDS011;10222;50.848;4.336;2024-02-23T13:37:47;9.53;;;1.87;;
20122;SDS011;10222;50.848;4.336;2024-02-23T13:40:13;4.13;;;1.40;;
20122;SDS011;10222;50.848;4.336;2024-02-23T13:42:39;4.70;;;1.70;;
20122;SDS011;10222;50.848;4.336;2024-02-23T13:45:08;13.47;;;2.07;;
20122;SDS011;10222;50.848;4.336;2024-02-23T13:47:34;4.63;;;1.30;;
20122;SDS011;10222;50.848;4.336;2024-02-23T13:50:01;3.97;;;1.20;;
20122;SDS011;10222;50.848;4.336;2024-02-23T13:52:27;4.60;;;1.20;;
20122;SDS011;10222;50.848;4.336;2024-02-23T13:54:54;6.03;;;1.43;;
20122;SDS011;10222;50.848;4.336;2024-02-23T13:57:20;3.67;;;1.57;;
20122;SDS011;10222;50.848;4.336;2024-02-23T13:59:46;3.47;;;1.40;;
20122;SDS011;10222;50.848;4.336;2024-02-23T14:02:12;3.83;;;1.53;;
20122;SDS011;10222;50.848;4.336;2024-02-23T14:04:39;4.50;;;1.63;;
20122;SDS011;10222;50.848;4.336;2024-02-23T14:07:06;5.57;;;1.63;;
20122;SDS011;10222;50.848;4.336;2024-02-23T14:09:32;5.53;;;1.30;;
20122;SDS011;10222;50.848;4.336;2024-02-23T14:11:59;4.67;;;1.90;;
20122;SDS011;10222;50.848;4.336;2024-02-23T14:14:25;4.80;;;1.20;;
20122;SDS011;10222;50.848;4.336;2024-02-23T14:16:51;3.93;;;1.10;;
20122;SDS011;10222;50.848;4.336;2024-02-23T14:19:17;5.07;;;1.00;;
20122;SDS011;10222;50.848;4.336;2024-02-23T14:21:45;5.33;;;1.10;;
20122;SDS011;10222;50.848;4.336;2024-02-23T14:24:13;3.13;;;1.10;;
20122;SDS011;10222;50.848;4.336;2024-02-23T14:26:39;2.67;;;0.87;;
20122;SDS011;10222;50.848;4.336;2024-02-23T14:29:05;5.20;;;1.13;;
20122;SDS011;10222;50.848;4.336;2024-02-23T14:31:31;4.30;;;1.10;;
20122;SDS011;10222;50.848;4.336;2024-02-23T14:33:57;2.50;;;1.10;;
20122;SDS011;10222;50.848;4.336;2024-02-23T14:36:23;5.47;;;1.40;;
20122;SDS011;10222;50.848;4.336;2024-02-23T14:38:49;4.37;;;1.17;;
20122;SDS011;10222;50.848;4.336;2024-02-23T14:41:15;4.40;;;1.00;;
20122;SDS011;10222;50.848;4.336;2024-02-23T14:43:41;2.33;;;1.00;;
20122;SDS011;10222;50.848;4.336;2024-02-23T14:46:07;1.57;;;0.53;;
20122;SDS011;10222;50.848;4.336;2024-02-23T14:48:34;2.10;;;0.90;;